sensor_id;sensor_type;location;lat;lon;timestamp;P1;durP1;ratioP1;P2;durP2;ratioP2
27039;SDS011;14589;51.578;7.306;2023-04-25T05:03:22;4.07;;;0.77;;
27039;SDS011;14589;51.578;7.306;2023-04-25T05:06:11;7.10;;;0.98;;
27039;SDS011;14589;51.578;7.306;2023-04-25T05:08:51;3.70;;;0.57;;
27039;SDS011;14589;51.578;7.306;2023-04-25T05:11:23;3.58;;;0.80;;
27039;SDS011;14589;51.578;7.306;2023-04-25T05:14:17;3.40;;;0.98;;
27039;SDS011;14589;51.578;7.306;2023-04-25T05:16:47;2.95;;;1.00;;
27039;SDS011;14589;51.578;7.306;2023-04-25T05:19:30;3.17;;;1.10;;
27039;SDS011;14589;51.578;7.306;2023-04-25T05:22:19;4.90;;;0.95;;
27039;SDS011;14589;51.578;7.306;2023-04-25T05:25:08;2.50;;;1.15;;
27039;SDS011;14589;51.578;7.306;2023-04-25T05:27:51;5.15;;;0.70;;
27039;SDS011;14589;51.578;7.306;2023-04-25T05:30:40;9.35;;;1.58;;
27039;SDS011;14589;51.578;7.306;2023-04-25T05:33:34;3.17;;;0.85;;
27039;SDS011;14589;51.578;7.306;2023-04-25T05:36:05;4.30;;;0.35;;
27039;SDS011;14589;51.578;7.306;2023-04-25T05:38:36;5.95;;;0.52;;
27039;SDS011;14589;51.578;7.306;2023-04-25T05:41:45;7.20;;;1.50;;
27039;SDS011;14589;51.578;7.306;2023-04-25T05:44:34;4.18;;;1.30;;
27039;SDS011;14589;51.578;7.306;2023-04-25T05:47:33;6.18;;;1.38;;
27039;SDS011;14589;51.578;7.306;2023-04-25T05:50:15;6.97;;;1.98;;
27039;SDS011;14589;51.578;7.306;2023-04-25T05:52:56;9.85;;;1.80;;
27039;SDS011;14589;51.578;7.306;2023-04-25T05:55:44;9.57;;;2.03;;
27039;SDS011;14589;51.578;7.306;2023-04-25T05:58:41;9.18;;;1.55;;
27039;SDS011;14589;51.578;7.306;2023-04-25T06:01:14;7.05;;;1.27;;
27039;SDS011;14589;51.578;7.306;2023-04-25T06:03:44;16.48;;;1.67;;
27039;SDS011;14589;51.578;7.306;2023-04-25T06:06:15;4.82;;;1.40;;
27039;SDS011;14589;51.578;7.306;2023-04-25T06:08:45;9.02;;;2.08;;
27039;SDS011;14589;51.578;7.306;2023-04-25T06:11:15;8.80;;;1.08;;
27039;SDS011;14589;51.578;7.306;2023-04-25T06:13:46;11.30;;;3.20;;
27039;SDS011;14589;51.578;7.306;2023-04-25T06:16:16;7.75;;;1.98;;
27039;SDS011;14589;51.578;7.306;2023-04-25T06:18:47;8.70;;;1.92;;
27039;SDS011;14589;51.578;7.306;2023-04-25T06:21:17;9.35;;;1.90;;
27039;SDS011;14589;51.578;7.306;2023-04-25T06:23:48;13.77;;;2.08;;
27039;SDS011;14589;51.578;7.306;2023-04-25T06:26:24;6.25;;;2.17;;
27039;SDS011;14589;51.578;7.306;2023-04-25T06:28:54;8.88;;;2.08;;
27039;SDS011;14589;51.578;7.306;2023-04-25T06:31:24;6.95;;;2.53;;
27039;SDS011;14589;51.578;7.306;2023-04-25T06:33:56;8.68;;;2.97;;
27039;SDS011;14589;51.578;7.306;2023-04-25T06:36:29;8.07;;;2.28;;
27039;SDS011;14589;51.578;7.306;2023-04-25T06:39:06;8.27;;;1.90;;
27039;SDS011;14589;51.578;7.306;2023-04-25T06:41:37;9.77;;;2.20;;
27039;SDS011;14589;51.578;7.306;2023-04-25T06:47:01;7.88;;;2.05;;
27039;SDS011;14589;51.578;7.306;2023-04-25T06:49:32;7.88;;;1.58;;
27039;SDS011;14589;51.578;7.306;2023-04-25T06:52:04;7.50;;;1.83;;
27039;SDS011;14589;51.578;7.306;2023-04-25T06:54:34;5.15;;;1.13;;
27039;SDS011;14589;51.578;7.306;2023-04-25T06:57:12;14.65;;;1.67;;
27039;SDS011;14589;51.578;7.306;2023-04-25T06:59:43;17.02;;;2.10;;
27039;SDS011;14589;51.578;7.306;2023-04-25T07:02:13;13.35;;;1.60;;
27039;SDS011;14589;51.578;7.306;2023-04-25T07:04:44;5.28;;;1.50;;
27039;SDS011;14589;51.578;7.306;2023-04-25T07:07:16;11.75;;;1.27;;
27039;SDS011;14589;51.578;7.306;2023-04-25T07:09:57;11.98;;;1.80;;
27039;SDS011;14589;51.578;7.306;2023-04-25T07:12:27;6.95;;;2.03;;
27039;SDS011;14589;51.578;7.306;2023-04-25T07:14:57;6.35;;;2.25;;
27039;SDS011;14589;51.578;7.306;2023-04-25T07:17:28;6.80;;;1.48;;
27039;SDS011;14589;51.578;7.306;2023-04-25T07:19:58;11.73;;;2.55;;
27039;SDS011;14589;51.578;7.306;2023-04-25T07:22:30;9.90;;;3.70;;
27039;SDS011;14589;51.578;7.306;2023-04-25T07:25:01;9.15;;;1.92;;
27039;SDS011;14589;51.578;7.306;2023-04-25T07:27:33;8.30;;;1.33;;
27039;SDS011;14589;51.578;7.306;2023-04-25T07:30:13;6.13;;;1.45;;
27039;SDS011;14589;51.578;7.306;2023-04-25T07:32:44;4.95;;;0.85;;
27039;SDS011;14589;51.578;7.306;2023-04-25T07:35:15;9.15;;;1.85;;
27039;SDS011;14589;51.578;7.306;2023-04-25T07:37:46;8.20;;;1.42;;
27039;SDS011;14589;51.578;7.306;2023-04-25T07:40:20;8.63;;;1.08;;
27039;SDS011;14589;51.578;7.306;2023-04-25T07:42:57;5.10;;;0.65;;
27039;SDS011;14589;51.578;7.306;2023-04-25T07:45:35;2.80;;;0.80;;
27039;SDS011;14589;51.578;7.306;2023-04-25T07:48:07;6.55;;;1.02;;
27039;SDS011;14589;51.578;7.306;2023-04-25T07:50:40;10.18;;;1.55;;
27039;SDS011;14589;51.578;7.306;2023-04-25T07:53:11;7.68;;;0.73;;
27039;SDS011;14589;51.578;7.306;2023-04-25T07:55:48;14.20;;;1.13;;
27039;SDS011;14589;51.578;7.306;2023-04-25T07:58:21;5.18;;;0.28;;
27039;SDS011;14589;51.578;7.306;2023-04-25T08:00:54;3.95;;;0.55;;
27039;SDS011;14589;51.578;7.306;2023-04-25T08:03:40;7.30;;;0.77;;
27039;SDS011;14589;51.578;7.306;2023-04-25T08:06:17;3.08;;;0.60;;
27039;SDS011;14589;51.578;7.306;2023-04-25T08:09:07;5.07;;;0.88;;
27039;SDS011;14589;51.578;7.306;2023-04-25T08:11:42;5.13;;;0.32;;
27039;SDS011;14589;51.578;7.306;2023-04-25T08:14:15;8.32;;;1.00;;
27039;SDS011;14589;51.578;7.306;2023-04-25T08:16:47;4.68;;;1.05;;
27039;SDS011;14589;51.578;7.306;2023-04-25T08:19:18;4.18;;;0.40;;
27039;SDS011;14589;51.578;7.306;2023-04-25T08:21:50;6.22;;;0.40;;
27039;SDS011;14589;51.578;7.306;2023-04-25T08:24:28;8.88;;;0.60;;
27039;SDS011;14589;51.578;7.306;2023-04-25T08:26:58;5.60;;;0.68;;
27039;SDS011;14589;51.578;7.306;2023-04-25T08:29:31;4.80;;;0.65;;
27039;SDS011;14589;51.578;7.306;2023-04-25T08:32:02;4.60;;;0.57;;
27039;SDS011;14589;51.578;7.306;2023-04-25T08:34:39;5.53;;;0.60;;
27039;SDS011;14589;51.578;7.306;2023-04-25T08:37:13;6.90;;;0.70;;
27039;SDS011;14589;51.578;7.306;2023-04-25T08:40:04;7.93;;;0.75;;
27039;SDS011;14589;51.578;7.306;2023-04-25T08:42:59;5.57;;;0.75;;
27039;SDS011;14589;51.578;7.306;2023-04-25T08:45:33;5.63;;;0.52;;
27039;SDS011;14589;51.578;7.306;2023-04-25T08:48:05;5.57;;;0.85;;
27039;SDS011;14589;51.578;7.306;2023-04-25T08:50:45;4.03;;;0.70;;
27039;SDS011;14589;51.578;7.306;2023-04-25T08:53:27;4.97;;;1.30;;
27039;SDS011;14589;51.578;7.306;2023-04-25T08:56:01;3.85;;;0.52;;
27039;SDS011;14589;51.578;7.306;2023-04-25T08:58:37;6.18;;;1.42;;
27039;SDS011;14589;51.578;7.306;2023-04-25T09:01:08;5.15;;;0.88;;
27039;SDS011;14589;51.578;7.306;2023-04-25T09:03:47;6.72;;;1.27;;
27039;SDS011;14589;51.578;7.306;2023-04-25T09:06:19;5.70;;;0.45;;
27039;SDS011;14589;51.578;7.306;2023-04-25T09:08:52;4.50;;;0.45;;
27039;SDS011;14589;51.578;7.306;2023-04-25T09:11:22;7.03;;;0.45;;
27039;SDS011;14589;51.578;7.306;2023-04-25T09:17:06;4.85;;;0.60;;
27039;SDS011;14589;51.578;7.306;2023-04-25T09:19:43;3.45;;;1.48;;
27039;SDS011;14589;51.578;7.306;2023-04-25T09:22:26;6.55;;;0.95;;
27039;SDS011;14589;51.578;7.306;2023-04-25T09:24:56;9.68;;;1.13;;
27039;SDS011;14589;51.578;7.306;2023-04-25T09:27:30;9.95;;;0.50;;
27039;SDS011;14589;51.578;7.306;2023-04-25T09:30:15;6.03;;;0.85;;
27039;SDS011;14589;51.578;7.306;2023-04-25T09:33:05;7.53;;;1.65;;
27039;SDS011;14589;51.578;7.306;2023-04-25T09:35:44;6.35;;;1.23;;
27039;SDS011;14589;51.578;7.306;2023-04-25T09:38:29;1.58;;;0.20;;
27039;SDS011;14589;51.578;7.306;2023-04-25T09:41:15;6.15;;;0.50;;
27039;SDS011;14589;51.578;7.306;2023-04-25T09:43:56;4.53;;;0.73;;
27039;SDS011;14589;51.578;7.306;2023-04-25T09:46:32;9.00;;;0.93;;
27039;SDS011;14589;51.578;7.306;2023-04-25T09:49:08;4.53;;;0.73;;
27039;SDS011;14589;51.578;7.306;2023-04-25T09:52:18;5.95;;;0.17;;
27039;SDS011;14589;51.578;7.306;2023-04-25T09:55:04;10.07;;;1.08;;
27039;SDS011;14589;51.578;7.306;2023-04-25T09:57:38;3.70;;;0.10;;
27039;SDS011;14589;51.578;7.306;2023-04-25T10:00:10;4.95;;;0.50;;
27039;SDS011;14589;51.578;7.306;2023-04-25T10:02:46;2.72;;;0.68;;
27039;SDS011;14589;51.578;7.306;2023-04-25T10:05:35;4.80;;;0.45;;
27039;SDS011;14589;51.578;7.306;2023-04-25T10:10:38;5.80;;;1.25;;
27039;SDS011;14589;51.578;7.306;2023-04-25T10:13:10;3.38;;;0.88;;
27039;SDS011;14589;51.578;7.306;2023-04-25T10:15:41;5.35;;;0.25;;
27039;SDS011;14589;51.578;7.306;2023-04-25T10:18:12;6.72;;;0.57;;
27039;SDS011;14589;51.578;7.306;2023-04-25T10:20:42;2.63;;;0.22;;
27039;SDS011;14589;51.578;7.306;2023-04-25T10:23:13;3.88;;;1.17;;
27039;SDS011;14589;51.578;7.306;2023-04-25T10:25:45;2.42;;;0.60;;
27039;SDS011;14589;51.578;7.306;2023-04-25T10:28:16;2.55;;;0.50;;
27039;SDS011;14589;51.578;7.306;2023-04-25T10:31:07;3.17;;;0.20;;
27039;SDS011;14589;51.578;7.306;2023-04-25T10:33:38;3.33;;;0.25;;
27039;SDS011;14589;51.578;7.306;2023-04-25T10:36:14;4.70;;;0.20;;
27039;SDS011;14589;51.578;7.306;2023-04-25T10:38:48;4.07;;;0.32;;
27039;SDS011;14589;51.578;7.306;2023-04-25T10:41:22;3.50;;;0.20;;
27039;SDS011;14589;51.578;7.306;2023-04-25T10:43:58;4.20;;;0.35;;
27039;SDS011;14589;51.578;7.306;2023-04-25T10:46:31;4.75;;;0.08;;
27039;SDS011;14589;51.578;7.306;2023-04-25T10:49:04;4.25;;;0.10;;
27039;SDS011;14589;51.578;7.306;2023-04-25T10:51:34;2.78;;;0.30;;
27039;SDS011;14589;51.578;7.306;2023-04-25T10:54:08;2.63;;;0.20;;
27039;SDS011;14589;51.578;7.306;2023-04-25T10:56:40;2.50;;;0.32;;
27039;SDS011;14589;51.578;7.306;2023-04-25T10:59:15;2.15;;;0.20;;
27039;SDS011;14589;51.578;7.306;2023-04-25T11:01:51;7.05;;;0.25;;
27039;SDS011;14589;51.578;7.306;2023-04-25T11:04:23;3.67;;;0.50;;
27039;SDS011;14589;51.578;7.306;2023-04-25T11:09:56;11.15;;;0.75;;
27039;SDS011;14589;51.578;7.306;2023-04-25T11:12:26;5.95;;;0.32;;
27039;SDS011;14589;51.578;7.306;2023-04-25T11:15:01;2.05;;;0.40;;
27039;SDS011;14589;51.578;7.306;2023-04-25T11:17:35;7.95;;;1.10;;
27039;SDS011;14589;51.578;7.306;2023-04-25T11:20:06;6.03;;;0.20;;
27039;SDS011;14589;51.578;7.306;2023-04-25T11:22:41;4.30;;;0.32;;
27039;SDS011;14589;51.578;7.306;2023-04-25T11:25:14;3.58;;;0.52;;
27039;SDS011;14589;51.578;7.306;2023-04-25T11:27:50;3.58;;;0.20;;
27039;SDS011;14589;51.578;7.306;2023-04-25T11:30:21;3.63;;;0.30;;
27039;SDS011;14589;51.578;7.306;2023-04-25T11:32:53;2.33;;;0.22;;
27039;SDS011;14589;51.578;7.306;2023-04-25T11:35:23;2.80;;;0.60;;
27039;SDS011;14589;51.578;7.306;2023-04-25T11:37:55;4.00;;;0.20;;
27039;SDS011;14589;51.578;7.306;2023-04-25T11:40:25;2.20;;;0.03;;
27039;SDS011;14589;51.578;7.306;2023-04-25T11:42:56;1.80;;;0.52;;
27039;SDS011;14589;51.578;7.306;2023-04-25T11:45:30;2.63;;;0.45;;
27039;SDS011;14589;51.578;7.306;2023-04-25T11:48:01;1.63;;;0.50;;
27039;SDS011;14589;51.578;7.306;2023-04-25T11:50:32;3.50;;;0.47;;
27039;SDS011;14589;51.578;7.306;2023-04-25T11:53:02;2.10;;;0.20;;
27039;SDS011;14589;51.578;7.306;2023-04-25T11:55:33;2.47;;;0.47;;
27039;SDS011;14589;51.578;7.306;2023-04-25T11:58:04;1.95;;;0.25;;
27039;SDS011;14589;51.578;7.306;2023-04-25T12:00:34;1.60;;;0.20;;
27039;SDS011;14589;51.578;7.306;2023-04-25T12:03:08;1.77;;;0.20;;
27039;SDS011;14589;51.578;7.306;2023-04-25T12:05:39;2.45;;;1.33;;
27039;SDS011;14589;51.578;7.306;2023-04-25T12:08:10;0.95;;;0.10;;
27039;SDS011;14589;51.578;7.306;2023-04-25T12:10:45;1.17;;;0.22;;
27039;SDS011;14589;51.578;7.306;2023-04-25T12:13:22;2.08;;;0.08;;
27039;SDS011;14589;51.578;7.306;2023-04-25T12:15:54;3.50;;;0.90;;
27039;SDS011;14589;51.578;7.306;2023-04-25T12:18:26;2.67;;;0.00;;
27039;SDS011;14589;51.578;7.306;2023-04-25T12:20:58;1.20;;;0.43;;
27039;SDS011;14589;51.578;7.306;2023-04-25T12:23:30;2.38;;;0.55;;
27039;SDS011;14589;51.578;7.306;2023-04-25T12:26:00;2.00;;;0.08;;
27039;SDS011;14589;51.578;7.306;2023-04-25T12:31:04;2.78;;;0.03;;
27039;SDS011;14589;51.578;7.306;2023-04-25T12:33:38;3.28;;;0.43;;
27039;SDS011;14589;51.578;7.306;2023-04-25T12:36:09;1.50;;;0.22;;
27039;SDS011;14589;51.578;7.306;2023-04-25T12:38:41;3.03;;;0.20;;
27039;SDS011;14589;51.578;7.306;2023-04-25T12:41:12;0.88;;;0.13;;
27039;SDS011;14589;51.578;7.306;2023-04-25T12:43:43;1.67;;;0.70;;
27039;SDS011;14589;51.578;7.306;2023-04-25T12:46:13;2.03;;;0.13;;
27039;SDS011;14589;51.578;7.306;2023-04-25T12:48:44;1.15;;;0.30;;
27039;SDS011;14589;51.578;7.306;2023-04-25T12:51:16;5.22;;;1.02;;
27039;SDS011;14589;51.578;7.306;2023-04-25T12:53:47;1.77;;;0.25;;
27039;SDS011;14589;51.578;7.306;2023-04-25T12:56:18;0.60;;;0.00;;
27039;SDS011;14589;51.578;7.306;2023-04-25T12:58:51;2.50;;;0.88;;
27039;SDS011;14589;51.578;7.306;2023-04-25T13:01:22;1.80;;;0.30;;
27039;SDS011;14589;51.578;7.306;2023-04-25T13:03:53;2.75;;;0.30;;
27039;SDS011;14589;51.578;7.306;2023-04-25T13:06:23;1.42;;;0.00;;
27039;SDS011;14589;51.578;7.306;2023-04-25T13:08:54;7.43;;;0.43;;
27039;SDS011;14589;51.578;7.306;2023-04-25T13:11:24;2.05;;;0.17;;
27039;SDS011;14589;51.578;7.306;2023-04-25T13:13:55;2.75;;;0.68;;
27039;SDS011;14589;51.578;7.306;2023-04-25T13:16:26;2.95;;;0.57;;
27039;SDS011;14589;51.578;7.306;2023-04-25T13:18:57;1.20;;;0.35;;
27039;SDS011;14589;51.578;7.306;2023-04-25T13:21:29;2.22;;;0.10;;
27039;SDS011;14589;51.578;7.306;2023-04-25T13:24:02;0.95;;;0.25;;
27039;SDS011;14589;51.578;7.306;2023-04-25T13:26:33;2.30;;;0.30;;
27039;SDS011;14589;51.578;7.306;2023-04-25T13:29:03;4.90;;;0.22;;
27039;SDS011;14589;51.578;7.306;2023-04-25T13:31:34;3.00;;;0.30;;
27039;SDS011;14589;51.578;7.306;2023-04-25T13:34:05;8.25;;;0.70;;
27039;SDS011;14589;51.578;7.306;2023-04-25T13:36:35;3.55;;;0.43;;
27039;SDS011;14589;51.578;7.306;2023-04-25T13:39:06;4.60;;;0.15;;
27039;SDS011;14589;51.578;7.306;2023-04-25T13:41:36;4.05;;;0.55;;
27039;SDS011;14589;51.578;7.306;2023-04-25T13:44:06;1.33;;;0.85;;
27039;SDS011;14589;51.578;7.306;2023-04-25T13:46:37;0.77;;;0.00;;
27039;SDS011;14589;51.578;7.306;2023-04-25T13:49:07;3.25;;;0.50;;
27039;SDS011;14589;51.578;7.306;2023-04-25T13:51:38;2.53;;;0.00;;
27039;SDS011;14589;51.578;7.306;2023-04-25T13:54:08;2.65;;;0.32;;
27039;SDS011;14589;51.578;7.306;2023-04-25T13:56:39;2.88;;;0.32;;
27039;SDS011;14589;51.578;7.306;2023-04-25T13:59:12;2.53;;;0.43;;
27039;SDS011;14589;51.578;7.306;2023-04-25T14:01:42;1.65;;;0.00;;
27039;SDS011;14589;51.578;7.306;2023-04-25T14:04:12;1.90;;;0.20;;
27039;SDS011;14589;51.578;7.306;2023-04-25T14:06:43;2.65;;;0.40;;
27039;SDS011;14589;51.578;7.306;2023-04-25T14:09:13;2.05;;;0.13;;
27039;SDS011;14589;51.578;7.306;2023-04-25T14:11:45;2.75;;;0.20;;
27039;SDS011;14589;51.578;7.306;2023-04-25T14:14:15;1.67;;;0.32;;
27039;SDS011;14589;51.578;7.306;2023-04-25T14:16:46;3.38;;;0.22;;
27039;SDS011;14589;51.578;7.306;2023-04-25T14:19:21;2.80;;;0.25;;
27039;SDS011;14589;51.578;7.306;2023-04-25T14:21:51;1.40;;;0.38;;
27039;SDS011;14589;51.578;7.306;2023-04-25T14:24:22;2.83;;;0.50;;
27039;SDS011;14589;51.578;7.306;2023-04-25T14:26:52;1.88;;;0.50;;
27039;SDS011;14589;51.578;7.306;2023-04-25T14:29:23;1.88;;;0.30;;
27039;SDS011;14589;51.578;7.306;2023-04-25T14:31:54;3.60;;;0.45;;
27039;SDS011;14589;51.578;7.306;2023-04-25T14:34:27;0.93;;;0.17;;
27039;SDS011;14589;51.578;7.306;2023-04-25T14:36:57;3.50;;;0.40;;
27039;SDS011;14589;51.578;7.306;2023-04-25T14:39:28;1.25;;;0.00;;
27039;SDS011;14589;51.578;7.306;2023-04-25T14:41:58;2.15;;;0.03;;
27039;SDS011;14589;51.578;7.306;2023-04-25T14:44:29;1.98;;;0.05;;
27039;SDS011;14589;51.578;7.306;2023-04-25T14:46:59;2.00;;;0.57;;
27039;SDS011;14589;51.578;7.306;2023-04-25T14:49:29;1.90;;;0.13;;
27039;SDS011;14589;51.578;7.306;2023-04-25T14:52:00;1.88;;;0.45;;
27039;SDS011;14589;51.578;7.306;2023-04-25T14:54:31;5.72;;;0.82;;
27039;SDS011;14589;51.578;7.306;2023-04-25T14:57:01;3.10;;;0.20;;
27039;SDS011;14589;51.578;7.306;2023-04-25T14:59:32;2.35;;;0.50;;
27039;SDS011;14589;51.578;7.306;2023-04-25T15:02:03;2.78;;;0.10;;
27039;SDS011;14589;51.578;7.306;2023-04-25T15:04:33;1.17;;;0.28;;
27039;SDS011;14589;51.578;7.306;2023-04-25T15:07:03;2.38;;;0.52;;
27039;SDS011;14589;51.578;7.306;2023-04-25T15:09:34;0.55;;;0.22;;
27039;SDS011;14589;51.578;7.306;2023-04-25T15:12:05;4.28;;;0.32;;
27039;SDS011;14589;51.578;7.306;2023-04-25T15:14:35;1.63;;;0.30;;
27039;SDS011;14589;51.578;7.306;2023-04-25T15:17:06;4.57;;;0.32;;
27039;SDS011;14589;51.578;7.306;2023-04-25T15:19:36;1.75;;;0.22;;
27039;SDS011;14589;51.578;7.306;2023-04-25T15:22:07;0.85;;;0.08;;
27039;SDS011;14589;51.578;7.306;2023-04-25T15:24:37;2.03;;;0.20;;
27039;SDS011;14589;51.578;7.306;2023-04-25T15:27:07;1.35;;;0.70;;
27039;SDS011;14589;51.578;7.306;2023-04-25T15:29:38;1.00;;;0.17;;
27039;SDS011;14589;51.578;7.306;2023-04-25T15:32:08;2.65;;;0.30;;
27039;SDS011;14589;51.578;7.306;2023-04-25T15:34:39;3.42;;;0.13;;
27039;SDS011;14589;51.578;7.306;2023-04-25T15:37:09;5.75;;;0.82;;
27039;SDS011;14589;51.578;7.306;2023-04-25T15:39:40;1.60;;;0.22;;
27039;SDS011;14589;51.578;7.306;2023-04-25T15:42:10;3.92;;;0.50;;
27039;SDS011;14589;51.578;7.306;2023-04-25T15:44:40;0.65;;;0.52;;
27039;SDS011;14589;51.578;7.306;2023-04-25T15:47:11;1.25;;;0.45;;
27039;SDS011;14589;51.578;7.306;2023-04-25T15:49:41;2.10;;;0.50;;
27039;SDS011;14589;51.578;7.306;2023-04-25T15:52:11;1.95;;;0.20;;
27039;SDS011;14589;51.578;7.306;2023-04-25T15:54:42;1.60;;;0.10;;
27039;SDS011;14589;51.578;7.306;2023-04-25T15:57:12;2.33;;;0.57;;
27039;SDS011;14589;51.578;7.306;2023-04-25T15:59:43;0.70;;;0.10;;
27039;SDS011;14589;51.578;7.306;2023-04-25T16:02:13;0.57;;;0.00;;
27039;SDS011;14589;51.578;7.306;2023-04-25T16:04:44;0.98;;;0.20;;
27039;SDS011;14589;51.578;7.306;2023-04-25T16:07:16;2.72;;;0.17;;
27039;SDS011;14589;51.578;7.306;2023-04-25T16:09:47;1.58;;;0.20;;
27039;SDS011;14589;51.578;7.306;2023-04-25T16:12:17;0.85;;;0.20;;
27039;SDS011;14589;51.578;7.306;2023-04-25T16:14:47;3.58;;;0.13;;
27039;SDS011;14589;51.578;7.306;2023-04-25T16:17:18;0.38;;;0.30;;
27039;SDS011;14589;51.578;7.306;2023-04-25T16:19:48;3.03;;;0.38;;
27039;SDS011;14589;51.578;7.306;2023-04-25T16:22:19;4.15;;;0.38;;
27039;SDS011;14589;51.578;7.306;2023-04-25T16:24:49;1.20;;;0.20;;
27039;SDS011;14589;51.578;7.306;2023-04-25T16:27:20;1.83;;;0.22;;
27039;SDS011;14589;51.578;7.306;2023-04-25T16:29:51;1.17;;;0.25;;
27039;SDS011;14589;51.578;7.306;2023-04-25T16:32:21;2.85;;;0.22;;
27039;SDS011;14589;51.578;7.306;2023-04-25T16:34:51;2.45;;;0.13;;
27039;SDS011;14589;51.578;7.306;2023-04-25T16:37:23;1.25;;;0.25;;
27039;SDS011;14589;51.578;7.306;2023-04-25T16:39:53;4.38;;;0.30;;
27039;SDS011;14589;51.578;7.306;2023-04-25T16:42:23;3.75;;;0.30;;
27039;SDS011;14589;51.578;7.306;2023-04-25T16:44:54;3.47;;;1.55;;
27039;SDS011;14589;51.578;7.306;2023-04-25T16:47:24;4.13;;;0.22;;
27039;SDS011;14589;51.578;7.306;2023-04-25T16:49:55;1.38;;;0.63;;
27039;SDS011;14589;51.578;7.306;2023-04-25T16:52:26;3.00;;;0.10;;
27039;SDS011;14589;51.578;7.306;2023-04-25T16:54:56;1.85;;;0.00;;
27039;SDS011;14589;51.578;7.306;2023-04-25T16:57:27;2.30;;;0.10;;
27039;SDS011;14589;51.578;7.306;2023-04-25T16:59:57;5.38;;;0.30;;
27039;SDS011;14589;51.578;7.306;2023-04-25T17:02:27;3.25;;;0.35;;
27039;SDS011;14589;51.578;7.306;2023-04-25T17:04:58;3.50;;;0.10;;
27039;SDS011;14589;51.578;7.306;2023-04-25T17:07:28;4.70;;;0.22;;
27039;SDS011;14589;51.578;7.306;2023-04-25T17:09:58;0.60;;;0.20;;
27039;SDS011;14589;51.578;7.306;2023-04-25T17:12:29;4.28;;;0.65;;
27039;SDS011;14589;51.578;7.306;2023-04-25T17:14:59;3.22;;;0.03;;
27039;SDS011;14589;51.578;7.306;2023-04-25T17:17:30;2.28;;;0.30;;
27039;SDS011;14589;51.578;7.306;2023-04-25T17:20:00;1.55;;;0.98;;
27039;SDS011;14589;51.578;7.306;2023-04-25T17:22:32;5.93;;;1.17;;
27039;SDS011;14589;51.578;7.306;2023-04-25T17:25:03;1.10;;;0.10;;
27039;SDS011;14589;51.578;7.306;2023-04-25T17:27:34;1.20;;;0.28;;
27039;SDS011;14589;51.578;7.306;2023-04-25T17:30:08;3.10;;;0.15;;
27039;SDS011;14589;51.578;7.306;2023-04-25T17:32:38;2.38;;;0.25;;
27039;SDS011;14589;51.578;7.306;2023-04-25T17:35:09;2.85;;;0.35;;
27039;SDS011;14589;51.578;7.306;2023-04-25T17:37:39;0.70;;;0.10;;
27039;SDS011;14589;51.578;7.306;2023-04-25T17:40:10;1.85;;;0.30;;
27039;SDS011;14589;51.578;7.306;2023-04-25T17:42:43;2.08;;;0.40;;
27039;SDS011;14589;51.578;7.306;2023-04-25T17:45:15;4.05;;;0.65;;
27039;SDS011;14589;51.578;7.306;2023-04-25T17:47:45;2.92;;;0.22;;
27039;SDS011;14589;51.578;7.306;2023-04-25T17:50:15;1.60;;;0.08;;
27039;SDS011;14589;51.578;7.306;2023-04-25T17:52:46;2.75;;;0.00;;
27039;SDS011;14589;51.578;7.306;2023-04-25T17:55:17;3.53;;;0.20;;
27039;SDS011;14589;51.578;7.306;2023-04-25T17:57:47;2.75;;;0.03;;
27039;SDS011;14589;51.578;7.306;2023-04-25T18:00:18;2.22;;;0.17;;
27039;SDS011;14589;51.578;7.306;2023-04-25T18:02:51;5.72;;;0.35;;
27039;SDS011;14589;51.578;7.306;2023-04-25T18:05:22;2.50;;;0.30;;
27039;SDS011;14589;51.578;7.306;2023-04-25T18:07:55;4.00;;;0.57;;
27039;SDS011;14589;51.578;7.306;2023-04-25T18:10:26;2.97;;;0.32;;
27039;SDS011;14589;51.578;7.306;2023-04-25T18:13:00;1.80;;;0.00;;
27039;SDS011;14589;51.578;7.306;2023-04-25T18:15:30;2.17;;;0.52;;
27039;SDS011;14589;51.578;7.306;2023-04-25T18:18:01;1.15;;;0.10;;
27039;SDS011;14589;51.578;7.306;2023-04-25T18:20:38;3.17;;;0.20;;
27039;SDS011;14589;51.578;7.306;2023-04-25T18:23:09;1.15;;;0.22;;
27039;SDS011;14589;51.578;7.306;2023-04-25T18:25:41;0.93;;;0.10;;
27039;SDS011;14589;51.578;7.306;2023-04-25T18:28:11;1.40;;;0.38;;
27039;SDS011;14589;51.578;7.306;2023-04-25T18:30:42;1.02;;;0.13;;
27039;SDS011;14589;51.578;7.306;2023-04-25T18:33:13;3.65;;;0.10;;
27039;SDS011;14589;51.578;7.306;2023-04-25T18:35:43;1.20;;;0.20;;
27039;SDS011;14589;51.578;7.306;2023-04-25T18:38:14;3.97;;;0.63;;
27039;SDS011;14589;51.578;7.306;2023-04-25T18:40:44;5.10;;;0.30;;
27039;SDS011;14589;51.578;7.306;2023-04-25T18:43:17;1.23;;;0.35;;
27039;SDS011;14589;51.578;7.306;2023-04-25T18:45:48;4.22;;;0.25;;
27039;SDS011;14589;51.578;7.306;2023-04-25T18:48:18;1.08;;;0.13;;
27039;SDS011;14589;51.578;7.306;2023-04-25T18:50:49;2.97;;;0.55;;
27039;SDS011;14589;51.578;7.306;2023-04-25T18:53:20;1.40;;;0.10;;
27039;SDS011;14589;51.578;7.306;2023-04-25T18:55:51;2.10;;;0.38;;
27039;SDS011;14589;51.578;7.306;2023-04-25T18:58:22;4.10;;;0.10;;
27039;SDS011;14589;51.578;7.306;2023-04-25T19:00:52;6.93;;;0.50;;
27039;SDS011;14589;51.578;7.306;2023-04-25T19:03:22;9.88;;;0.15;;
27039;SDS011;14589;51.578;7.306;2023-04-25T19:05:53;2.95;;;0.43;;
27039;SDS011;14589;51.578;7.306;2023-04-25T19:08:23;3.50;;;0.15;;
27039;SDS011;14589;51.578;7.306;2023-04-25T19:10:54;2.08;;;0.47;;
27039;SDS011;14589;51.578;7.306;2023-04-25T19:13:25;4.13;;;0.43;;
27039;SDS011;14589;51.578;7.306;2023-04-25T19:15:57;4.50;;;0.20;;
27039;SDS011;14589;51.578;7.306;2023-04-25T19:18:27;2.90;;;0.43;;
27039;SDS011;14589;51.578;7.306;2023-04-25T19:20:58;1.83;;;0.10;;
27039;SDS011;14589;51.578;7.306;2023-04-25T19:23:29;5.45;;;0.15;;
27039;SDS011;14589;51.578;7.306;2023-04-25T19:26:00;2.38;;;0.10;;
27039;SDS011;14589;51.578;7.306;2023-04-25T19:28:31;3.00;;;0.30;;
27039;SDS011;14589;51.578;7.306;2023-04-25T19:31:02;6.20;;;0.32;;
27039;SDS011;14589;51.578;7.306;2023-04-25T19:33:32;1.45;;;0.30;;
27039;SDS011;14589;51.578;7.306;2023-04-25T19:36:03;2.55;;;0.30;;
27039;SDS011;14589;51.578;7.306;2023-04-25T19:38:33;3.85;;;0.17;;
27039;SDS011;14589;51.578;7.306;2023-04-25T19:41:04;6.22;;;0.85;;
27039;SDS011;14589;51.578;7.306;2023-04-25T19:43:34;0.90;;;0.10;;
27039;SDS011;14589;51.578;7.306;2023-04-25T19:46:05;4.10;;;1.35;;
27039;SDS011;14589;51.578;7.306;2023-04-25T19:48:35;2.90;;;0.32;;
27039;SDS011;14589;51.578;7.306;2023-04-25T19:51:05;4.72;;;0.32;;
27039;SDS011;14589;51.578;7.306;2023-04-25T19:53:36;3.28;;;0.15;;
27039;SDS011;14589;51.578;7.306;2023-04-25T19:56:07;3.25;;;0.32;;
27039;SDS011;14589;51.578;7.306;2023-04-25T19:58:38;1.38;;;0.43;;
27039;SDS011;14589;51.578;7.306;2023-04-25T20:01:08;1.52;;;0.20;;
27039;SDS011;14589;51.578;7.306;2023-04-25T20:03:39;3.58;;;0.32;;
27039;SDS011;14589;51.578;7.306;2023-04-25T20:06:09;1.08;;;0.10;;
27039;SDS011;14589;51.578;7.306;2023-04-25T20:08:40;2.38;;;0.20;;
27039;SDS011;14589;51.578;7.306;2023-04-25T20:11:10;1.67;;;0.20;;
27039;SDS011;14589;51.578;7.306;2023-04-25T20:13:41;1.65;;;0.03;;
27039;SDS011;14589;51.578;7.306;2023-04-25T20:16:11;1.15;;;0.55;;
27039;SDS011;14589;51.578;7.306;2023-04-25T20:18:42;2.72;;;0.13;;
27039;SDS011;14589;51.578;7.306;2023-04-25T20:21:13;4.40;;;0.68;;
27039;SDS011;14589;51.578;7.306;2023-04-25T20:23:44;3.45;;;0.38;;
27039;SDS011;14589;51.578;7.306;2023-04-25T20:26:15;4.05;;;0.70;;
27039;SDS011;14589;51.578;7.306;2023-04-25T20:28:45;1.55;;;0.35;;
27039;SDS011;14589;51.578;7.306;2023-04-25T20:31:15;4.75;;;0.47;;
27039;SDS011;14589;51.578;7.306;2023-04-25T20:33:46;4.75;;;0.43;;
27039;SDS011;14589;51.578;7.306;2023-04-25T20:36:16;2.78;;;0.10;;
27039;SDS011;14589;51.578;7.306;2023-04-25T20:38:48;1.20;;;0.30;;